sensor_id;sensor_type;location;lat;lon;timestamp;P1;durP1;ratioP1;P2;durP2;ratioP2
45408;SDS011;31162;51.076;3.784;2024-03-02T00:00:18;1.10;;;0.90;;
45408;SDS011;31162;51.076;3.784;2024-03-02T00:02:46;1.00;;;0.90;;
45408;SDS011;31162;51.076;3.784;2024-03-02T00:05:18;2.28;;;0.90;;
45408;SDS011;31162;51.076;3.784;2024-03-02T00:07:46;2.15;;;1.27;;
45408;SDS011;31162;51.076;3.784;2024-03-02T00:10:19;2.40;;;1.23;;
45408;SDS011;31162;51.076;3.784;2024-03-02T00:12:48;2.33;;;1.10;;
45408;SDS011;31162;51.076;3.784;2024-03-02T00:18:11;2.22;;;1.27;;
45408;SDS011;31162;51.076;3.784;2024-03-02T00:20:37;2.50;;;1.40;;
45408;SDS011;31162;51.076;3.784;2024-03-02T00:23:05;1.75;;;1.35;;
45408;SDS011;31162;51.076;3.784;2024-03-02T00:25:38;4.50;;;1.45;;
45408;SDS011;31162;51.076;3.784;2024-03-02T00:28:10;2.22;;;1.30;;
45408;SDS011;31162;51.076;3.784;2024-03-02T00:33:21;2.00;;;1.30;;
45408;SDS011;31162;51.076;3.784;2024-03-02T00:35:48;2.95;;;1.42;;
45408;SDS011;31162;51.076;3.784;2024-03-02T00:38:15;3.40;;;1.27;;
45408;SDS011;31162;51.076;3.784;2024-03-02T00:40:44;1.65;;;1.17;;
45408;SDS011;31162;51.076;3.784;2024-03-02T00:43:22;1.80;;;1.05;;
45408;SDS011;31162;51.076;3.784;2024-03-02T00:46:12;1.10;;;1.00;;
45408;SDS011;31162;51.076;3.784;2024-03-02T00:48:42;2.72;;;1.33;;
45408;SDS011;31162;51.076;3.784;2024-03-02T00:51:20;1.65;;;1.10;;
45408;SDS011;31162;51.076;3.784;2024-03-02T00:53:47;1.92;;;1.27;;
45408;SDS011;31162;51.076;3.784;2024-03-02T00:56:14;1.20;;;1.10;;
45408;SDS011;31162;51.076;3.784;2024-03-02T00:58:40;2.92;;;1.30;;
45408;SDS011;31162;51.076;3.784;2024-03-02T01:01:05;2.03;;;1.10;;
45408;SDS011;31162;51.076;3.784;2024-03-02T01:03:32;2.58;;;1.10;;
45408;SDS011;31162;51.076;3.784;2024-03-02T01:05:59;2.13;;;1.10;;
45408;SDS011;31162;51.076;3.784;2024-03-02T01:08:24;1.83;;;1.40;;
45408;SDS011;31162;51.076;3.784;2024-03-02T01:10:51;3.38;;;1.50;;
45408;SDS011;31162;51.076;3.784;2024-03-02T01:13:16;2.13;;;1.23;;
45408;SDS011;31162;51.076;3.784;2024-03-02T01:15:42;2.83;;;1.45;;
45408;SDS011;31162;51.076;3.784;2024-03-02T01:18:08;1.70;;;1.27;;
45408;SDS011;31162;51.076;3.784;2024-03-02T01:20:34;3.17;;;2.10;;
45408;SDS011;31162;51.076;3.784;2024-03-02T01:23:00;2.78;;;1.70;;
45408;SDS011;31162;51.076;3.784;2024-03-02T01:25:25;1.75;;;1.65;;
45408;SDS011;31162;51.076;3.784;2024-03-02T01:27:51;2.45;;;1.80;;
45408;SDS011;31162;51.076;3.784;2024-03-02T01:30:17;2.35;;;1.50;;
45408;SDS011;31162;51.076;3.784;2024-03-02T01:32:42;2.10;;;1.70;;
45408;SDS011;31162;51.076;3.784;2024-03-02T01:35:08;4.82;;;1.88;;
45408;SDS011;31162;51.076;3.784;2024-03-02T01:37:34;3.30;;;1.70;;
45408;SDS011;31162;51.076;3.784;2024-03-02T01:40:00;3.60;;;1.67;;
45408;SDS011;31162;51.076;3.784;2024-03-02T01:42:25;2.17;;;1.50;;
45408;SDS011;31162;51.076;3.784;2024-03-02T01:44:51;2.60;;;1.70;;
45408;SDS011;31162;51.076;3.784;2024-03-02T01:47:17;3.15;;;1.75;;
45408;SDS011;31162;51.076;3.784;2024-03-02T01:49:42;2.67;;;1.48;;
45408;SDS011;31162;51.076;3.784;2024-03-02T01:52:08;3.78;;;1.92;;
45408;SDS011;31162;51.076;3.784;2024-03-02T01:54:34;4.80;;;1.90;;
45408;SDS011;31162;51.076;3.784;2024-03-02T01:56:59;2.05;;;1.55;;
45408;SDS011;31162;51.076;3.784;2024-03-02T01:59:25;2.25;;;1.58;;
45408;SDS011;31162;51.076;3.784;2024-03-02T02:01:52;3.28;;;2.00;;
45408;SDS011;31162;51.076;3.784;2024-03-02T02:04:17;3.42;;;2.05;;
45408;SDS011;31162;51.076;3.784;2024-03-02T02:06:46;5.20;;;1.88;;
45408;SDS011;31162;51.076;3.784;2024-03-02T02:09:11;4.03;;;1.85;;
45408;SDS011;31162;51.076;3.784;2024-03-02T02:11:37;4.35;;;2.58;;
45408;SDS011;31162;51.076;3.784;2024-03-02T02:14:03;4.30;;;2.10;;
45408;SDS011;31162;51.076;3.784;2024-03-02T02:16:29;6.82;;;2.10;;
45408;SDS011;31162;51.076;3.784;2024-03-02T02:18:54;3.97;;;2.20;;
45408;SDS011;31162;51.076;3.784;2024-03-02T02:21:23;4.25;;;2.33;;
45408;SDS011;31162;51.076;3.784;2024-03-02T02:23:49;3.83;;;2.08;;
45408;SDS011;31162;51.076;3.784;2024-03-02T02:26:15;6.22;;;2.58;;
45408;SDS011;31162;51.076;3.784;2024-03-02T02:28:41;3.80;;;2.40;;
45408;SDS011;31162;51.076;3.784;2024-03-02T02:31:12;4.93;;;2.58;;
45408;SDS011;31162;51.076;3.784;2024-03-02T02:33:41;3.33;;;2.60;;
45408;SDS011;31162;51.076;3.784;2024-03-02T02:36:07;6.43;;;2.75;;
45408;SDS011;31162;51.076;3.784;2024-03-02T02:38:36;6.78;;;2.70;;
45408;SDS011;31162;51.076;3.784;2024-03-02T02:41:05;4.70;;;2.80;;
45408;SDS011;31162;51.076;3.784;2024-03-02T02:43:31;5.13;;;2.72;;
45408;SDS011;31162;51.076;3.784;2024-03-02T02:45:56;8.20;;;2.78;;
45408;SDS011;31162;51.076;3.784;2024-03-02T02:48:22;3.97;;;2.95;;
45408;SDS011;31162;51.076;3.784;2024-03-02T02:50:47;4.95;;;3.13;;
45408;SDS011;31162;51.076;3.784;2024-03-02T02:53:13;5.00;;;2.95;;
45408;SDS011;31162;51.076;3.784;2024-03-02T02:55:39;4.20;;;2.85;;
45408;SDS011;31162;51.076;3.784;2024-03-02T02:58:05;4.90;;;3.08;;
45408;SDS011;31162;51.076;3.784;2024-03-02T03:00:31;8.07;;;3.05;;
45408;SDS011;31162;51.076;3.784;2024-03-02T03:02:57;4.00;;;3.00;;
45408;SDS011;31162;51.076;3.784;2024-03-02T03:05:23;4.38;;;2.72;;
45408;SDS011;31162;51.076;3.784;2024-03-02T03:07:48;11.50;;;3.17;;
45408;SDS011;31162;51.076;3.784;2024-03-02T03:10:15;5.05;;;3.28;;
45408;SDS011;31162;51.076;3.784;2024-03-02T03:12:41;5.78;;;2.90;;
45408;SDS011;31162;51.076;3.784;2024-03-02T03:15:08;5.75;;;2.92;;
45408;SDS011;31162;51.076;3.784;2024-03-02T03:17:34;5.78;;;3.10;;
45408;SDS011;31162;51.076;3.784;2024-03-02T03:20:00;5.85;;;2.75;;
45408;SDS011;31162;51.076;3.784;2024-03-02T03:22:27;5.97;;;2.72;;
45408;SDS011;31162;51.076;3.784;2024-03-02T03:24:53;5.65;;;3.15;;
45408;SDS011;31162;51.076;3.784;2024-03-02T03:27:19;6.18;;;2.53;;
45408;SDS011;31162;51.076;3.784;2024-03-02T03:29:47;3.60;;;2.38;;
45408;SDS011;31162;51.076;3.784;2024-03-02T03:32:12;4.45;;;2.30;;
45408;SDS011;31162;51.076;3.784;2024-03-02T03:34:38;5.70;;;2.25;;
45408;SDS011;31162;51.076;3.784;2024-03-02T03:37:05;4.32;;;2.33;;
45408;SDS011;31162;51.076;3.784;2024-03-02T03:39:30;4.80;;;2.10;;
45408;SDS011;31162;51.076;3.784;2024-03-02T03:41:56;8.52;;;2.15;;
45408;SDS011;31162;51.076;3.784;2024-03-02T03:44:22;4.97;;;2.38;;
45408;SDS011;31162;51.076;3.784;2024-03-02T03:46:48;2.92;;;2.03;;
45408;SDS011;31162;51.076;3.784;2024-03-02T03:49:13;3.97;;;1.90;;
45408;SDS011;31162;51.076;3.784;2024-03-02T03:51:39;4.68;;;2.30;;
45408;SDS011;31162;51.076;3.784;2024-03-02T03:54:05;5.95;;;2.63;;
45408;SDS011;31162;51.076;3.784;2024-03-02T03:56:30;3.53;;;2.13;;
45408;SDS011;31162;51.076;3.784;2024-03-02T03:58:56;2.72;;;2.20;;
45408;SDS011;31162;51.076;3.784;2024-03-02T04:01:21;5.32;;;2.35;;
45408;SDS011;31162;51.076;3.784;2024-03-02T04:03:47;3.00;;;2.05;;
45408;SDS011;31162;51.076;3.784;2024-03-02T04:06:13;3.47;;;2.08;;
45408;SDS011;31162;51.076;3.784;2024-03-02T04:08:41;4.57;;;2.20;;
45408;SDS011;31162;51.076;3.784;2024-03-02T04:11:07;3.08;;;1.70;;
45408;SDS011;31162;51.076;3.784;2024-03-02T04:13:33;2.60;;;1.73;;
45408;SDS011;31162;51.076;3.784;2024-03-02T04:15:58;4.63;;;2.35;;
45408;SDS011;31162;51.076;3.784;2024-03-02T04:18:24;3.67;;;1.90;;
45408;SDS011;31162;51.076;3.784;2024-03-02T04:20:49;5.13;;;2.00;;
45408;SDS011;31162;51.076;3.784;2024-03-02T04:23:15;6.90;;;2.00;;
45408;SDS011;31162;51.076;3.784;2024-03-02T04:25:41;5.78;;;1.85;;
45408;SDS011;31162;51.076;3.784;2024-03-02T04:28:06;6.70;;;1.80;;
45408;SDS011;31162;51.076;3.784;2024-03-02T04:30:32;6.63;;;1.95;;
45408;SDS011;31162;51.076;3.784;2024-03-02T04:32:58;5.15;;;2.10;;
45408;SDS011;31162;51.076;3.784;2024-03-02T04:35:24;3.50;;;2.30;;
45408;SDS011;31162;51.076;3.784;2024-03-02T04:37:50;4.00;;;2.63;;
45408;SDS011;31162;51.076;3.784;2024-03-02T04:40:16;6.28;;;1.75;;
45408;SDS011;31162;51.076;3.784;2024-03-02T04:42:42;6.35;;;2.17;;
45408;SDS011;31162;51.076;3.784;2024-03-02T04:45:08;5.85;;;1.95;;
45408;SDS011;31162;51.076;3.784;2024-03-02T04:47:34;3.25;;;1.85;;
45408;SDS011;31162;51.076;3.784;2024-03-02T04:49:59;4.10;;;1.85;;
45408;SDS011;31162;51.076;3.784;2024-03-02T04:52:25;4.70;;;1.52;;
45408;SDS011;31162;51.076;3.784;2024-03-02T04:54:51;7.38;;;2.10;;
45408;SDS011;31162;51.076;3.784;2024-03-02T04:57:35;4.57;;;1.75;;
45408;SDS011;31162;51.076;3.784;2024-03-02T05:00:00;7.93;;;1.80;;
45408;SDS011;31162;51.076;3.784;2024-03-02T05:02:26;6.28;;;2.97;;
45408;SDS011;31162;51.076;3.784;2024-03-02T05:04:52;4.32;;;1.67;;
45408;SDS011;31162;51.076;3.784;2024-03-02T05:07:17;4.68;;;1.90;;
45408;SDS011;31162;51.076;3.784;2024-03-02T05:09:43;3.92;;;1.75;;
45408;SDS011;31162;51.076;3.784;2024-03-02T05:12:09;5.22;;;1.80;;
45408;SDS011;31162;51.076;3.784;2024-03-02T05:14:54;2.72;;;1.48;;
45408;SDS011;31162;51.076;3.784;2024-03-02T05:17:19;5.20;;;1.70;;
45408;SDS011;31162;51.076;3.784;2024-03-02T05:19:45;5.13;;;1.73;;
45408;SDS011;31162;51.076;3.784;2024-03-02T05:22:11;3.03;;;1.50;;
45408;SDS011;31162;51.076;3.784;2024-03-02T05:24:36;10.13;;;6.07;;
45408;SDS011;31162;51.076;3.784;2024-03-02T05:27:02;2.90;;;1.70;;
45408;SDS011;31162;51.076;3.784;2024-03-02T05:29:27;5.93;;;1.70;;
45408;SDS011;31162;51.076;3.784;2024-03-02T05:31:53;6.00;;;1.60;;
45408;SDS011;31162;51.076;3.784;2024-03-02T05:34:19;4.18;;;1.60;;
45408;SDS011;31162;51.076;3.784;2024-03-02T05:36:44;3.20;;;1.58;;
45408;SDS011;31162;51.076;3.784;2024-03-02T05:39:10;3.90;;;1.85;;
45408;SDS011;31162;51.076;3.784;2024-03-02T05:41:35;3.42;;;1.48;;
45408;SDS011;31162;51.076;3.784;2024-03-02T05:44:01;5.45;;;1.63;;
45408;SDS011;31162;51.076;3.784;2024-03-02T05:46:27;2.60;;;1.60;;
45408;SDS011;31162;51.076;3.784;2024-03-02T05:48:53;5.68;;;2.05;;
45408;SDS011;31162;51.076;3.784;2024-03-02T05:51:18;3.63;;;1.50;;
45408;SDS011;31162;51.076;3.784;2024-03-02T05:53:44;4.78;;;1.10;;
45408;SDS011;31162;51.076;3.784;2024-03-02T05:56:10;3.15;;;1.50;;
45408;SDS011;31162;51.076;3.784;2024-03-02T05:58:37;5.40;;;2.10;;
45408;SDS011;31162;51.076;3.784;2024-03-02T06:01:16;3.17;;;1.35;;
45408;SDS011;31162;51.076;3.784;2024-03-02T06:03:43;3.17;;;1.17;;
45408;SDS011;31162;51.076;3.784;2024-03-02T06:06:09;2.95;;;1.25;;
45408;SDS011;31162;51.076;3.784;2024-03-02T06:08:35;4.75;;;1.50;;
45408;SDS011;31162;51.076;3.784;2024-03-02T06:11:00;3.05;;;1.35;;
45408;SDS011;31162;51.076;3.784;2024-03-02T06:13:26;6.05;;;1.20;;
45408;SDS011;31162;51.076;3.784;2024-03-02T06:15:52;3.42;;;1.33;;
45408;SDS011;31162;51.076;3.784;2024-03-02T06:18:18;4.43;;;1.80;;
45408;SDS011;31162;51.076;3.784;2024-03-02T06:20:43;3.60;;;1.35;;
45408;SDS011;31162;51.076;3.784;2024-03-02T06:23:09;4.82;;;1.58;;
45408;SDS011;31162;51.076;3.784;2024-03-02T06:25:35;4.35;;;1.40;;
45408;SDS011;31162;51.076;3.784;2024-03-02T06:28:00;4.13;;;1.38;;
45408;SDS011;31162;51.076;3.784;2024-03-02T06:30:26;6.35;;;1.67;;
45408;SDS011;31162;51.076;3.784;2024-03-02T06:32:52;3.63;;;1.50;;
45408;SDS011;31162;51.076;3.784;2024-03-02T06:35:17;7.13;;;1.52;;
45408;SDS011;31162;51.076;3.784;2024-03-02T06:37:43;4.03;;;1.35;;
45408;SDS011;31162;51.076;3.784;2024-03-02T06:40:09;4.80;;;1.70;;
45408;SDS011;31162;51.076;3.784;2024-03-02T06:42:35;2.92;;;1.40;;
45408;SDS011;31162;51.076;3.784;2024-03-02T06:45:01;5.38;;;1.33;;
45408;SDS011;31162;51.076;3.784;2024-03-02T06:47:28;3.40;;;1.70;;
45408;SDS011;31162;51.076;3.784;2024-03-02T06:49:53;2.83;;;1.30;;
45408;SDS011;31162;51.076;3.784;2024-03-02T06:52:19;6.97;;;1.60;;
45408;SDS011;31162;51.076;3.784;2024-03-02T06:54:45;6.82;;;1.50;;
45408;SDS011;31162;51.076;3.784;2024-03-02T06:57:11;4.32;;;1.50;;
45408;SDS011;31162;51.076;3.784;2024-03-02T06:59:37;5.90;;;1.77;;
45408;SDS011;31162;51.076;3.784;2024-03-02T07:02:03;5.55;;;1.50;;
45408;SDS011;31162;51.076;3.784;2024-03-02T07:04:28;6.20;;;1.70;;
45408;SDS011;31162;51.076;3.784;2024-03-02T07:06:54;4.80;;;1.25;;
45408;SDS011;31162;51.076;3.784;2024-03-02T07:09:20;6.22;;;1.88;;
45408;SDS011;31162;51.076;3.784;2024-03-02T07:11:48;6.72;;;1.77;;
45408;SDS011;31162;51.076;3.784;2024-03-02T07:14:14;4.00;;;1.23;;
45408;SDS011;31162;51.076;3.784;2024-03-02T07:16:40;4.72;;;1.42;;
45408;SDS011;31162;51.076;3.784;2024-03-02T07:19:08;3.92;;;1.40;;
45408;SDS011;31162;51.076;3.784;2024-03-02T07:21:33;9.65;;;1.92;;
45408;SDS011;31162;51.076;3.784;2024-03-02T07:23:59;4.40;;;1.20;;
45408;SDS011;31162;51.076;3.784;2024-03-02T07:26:27;4.53;;;1.60;;
45408;SDS011;31162;51.076;3.784;2024-03-02T07:28:55;6.20;;;1.83;;
45408;SDS011;31162;51.076;3.784;2024-03-02T07:31:20;7.30;;;1.48;;
45408;SDS011;31162;51.076;3.784;2024-03-02T07:33:46;3.75;;;1.20;;
45408;SDS011;31162;51.076;3.784;2024-03-02T07:36:12;3.65;;;1.70;;
45408;SDS011;31162;51.076;3.784;2024-03-02T07:38:38;4.72;;;1.33;;
45408;SDS011;31162;51.076;3.784;2024-03-02T07:41:05;4.97;;;1.35;;
45408;SDS011;31162;51.076;3.784;2024-03-02T07:43:31;3.13;;;1.15;;
45408;SDS011;31162;51.076;3.784;2024-03-02T07:46:05;4.93;;;0.95;;
45408;SDS011;31162;51.076;3.784;2024-03-02T07:48:31;3.63;;;1.05;;
45408;SDS011;31162;51.076;3.784;2024-03-02T07:50:57;2.80;;;1.02;;
45408;SDS011;31162;51.076;3.784;2024-03-02T07:53:22;7.40;;;1.65;;
45408;SDS011;31162;51.076;3.784;2024-03-02T07:55:48;2.45;;;1.50;;
45408;SDS011;31162;51.076;3.784;2024-03-02T07:58:14;4.53;;;1.20;;
45408;SDS011;31162;51.076;3.784;2024-03-02T08:00:40;4.03;;;2.00;;
45408;SDS011;31162;51.076;3.784;2024-03-02T08:03:06;3.95;;;1.20;;
45408;SDS011;31162;51.076;3.784;2024-03-02T08:05:32;3.47;;;1.42;;
45408;SDS011;31162;51.076;3.784;2024-03-02T08:07:57;7.30;;;1.60;;
45408;SDS011;31162;51.076;3.784;2024-03-02T08:10:23;4.53;;;1.27;;
45408;SDS011;31162;51.076;3.784;2024-03-02T08:12:49;5.68;;;1.50;;
45408;SDS011;31162;51.076;3.784;2024-03-02T08:15:15;3.63;;;1.05;;
45408;SDS011;31162;51.076;3.784;2024-03-02T08:17:41;3.47;;;1.40;;
45408;SDS011;31162;51.076;3.784;2024-03-02T08:20:14;4.00;;;1.55;;
45408;SDS011;31162;51.076;3.784;2024-03-02T08:22:40;6.18;;;1.33;;
45408;SDS011;31162;51.076;3.784;2024-03-02T08:25:06;5.50;;;1.30;;
45408;SDS011;31162;51.076;3.784;2024-03-02T08:27:33;4.82;;;1.63;;
45408;SDS011;31162;51.076;3.784;2024-03-02T08:29:59;7.35;;;1.38;;
45408;SDS011;31162;51.076;3.784;2024-03-02T08:32:24;3.97;;;1.30;;
45408;SDS011;31162;51.076;3.784;2024-03-02T08:34:50;4.78;;;1.35;;
45408;SDS011;31162;51.076;3.784;2024-03-02T08:37:15;3.40;;;1.10;;
45408;SDS011;31162;51.076;3.784;2024-03-02T08:39:41;3.58;;;1.10;;
45408;SDS011;31162;51.076;3.784;2024-03-02T08:42:07;5.93;;;1.20;;
45408;SDS011;31162;51.076;3.784;2024-03-02T08:44:33;3.90;;;1.15;;
45408;SDS011;31162;51.076;3.784;2024-03-02T08:46:59;4.03;;;1.20;;
45408;SDS011;31162;51.076;3.784;2024-03-02T08:49:24;4.13;;;1.10;;
45408;SDS011;31162;51.076;3.784;2024-03-02T08:51:50;3.55;;;0.90;;
45408;SDS011;31162;51.076;3.784;2024-03-02T08:54:20;4.05;;;1.13;;
45408;SDS011;31162;51.076;3.784;2024-03-02T08:56:47;4.07;;;1.10;;
45408;SDS011;31162;51.076;3.784;2024-03-02T08:59:13;3.60;;;1.08;;
45408;SDS011;31162;51.076;3.784;2024-03-02T09:01:39;2.63;;;0.90;;
45408;SDS011;31162;51.076;3.784;2024-03-02T09:04:06;7.55;;;1.10;;
45408;SDS011;31162;51.076;3.784;2024-03-02T09:06:33;4.22;;;1.00;;
45408;SDS011;31162;51.076;3.784;2024-03-02T09:08:59;5.60;;;1.10;;
45408;SDS011;31162;51.076;3.784;2024-03-02T09:11:25;6.68;;;1.10;;
45408;SDS011;31162;51.076;3.784;2024-03-02T09:13:51;3.10;;;1.15;;
45408;SDS011;31162;51.076;3.784;2024-03-02T09:16:18;5.53;;;1.10;;
45408;SDS011;31162;51.076;3.784;2024-03-02T09:18:44;4.88;;;1.20;;
45408;SDS011;31162;51.076;3.784;2024-03-02T09:21:10;5.97;;;1.70;;
45408;SDS011;31162;51.076;3.784;2024-03-02T09:23:35;3.35;;;1.17;;
45408;SDS011;31162;51.076;3.784;2024-03-02T09:26:01;7.57;;;1.83;;
45408;SDS011;31162;51.076;3.784;2024-03-02T09:28:28;5.50;;;1.85;;
45408;SDS011;31162;51.076;3.784;2024-03-02T09:30:54;4.53;;;1.30;;
45408;SDS011;31162;51.076;3.784;2024-03-02T09:33:19;6.65;;;1.27;;
45408;SDS011;31162;51.076;3.784;2024-03-02T09:35:45;4.90;;;1.70;;
45408;SDS011;31162;51.076;3.784;2024-03-02T09:38:11;11.75;;;1.70;;
45408;SDS011;31162;51.076;3.784;2024-03-02T09:40:37;5.82;;;1.60;;
45408;SDS011;31162;51.076;3.784;2024-03-02T09:43:02;6.88;;;1.73;;
45408;SDS011;31162;51.076;3.784;2024-03-02T09:45:28;6.50;;;1.77;;
45408;SDS011;31162;51.076;3.784;2024-03-02T09:47:55;6.65;;;1.75;;
45408;SDS011;31162;51.076;3.784;2024-03-02T09:50:21;6.22;;;1.50;;
45408;SDS011;31162;51.076;3.784;2024-03-02T09:52:48;5.22;;;1.30;;
45408;SDS011;31162;51.076;3.784;2024-03-02T09:55:15;5.30;;;1.40;;
45408;SDS011;31162;51.076;3.784;2024-03-02T09:57:42;4.85;;;1.50;;
45408;SDS011;31162;51.076;3.784;2024-03-02T10:00:08;4.47;;;1.20;;
45408;SDS011;31162;51.076;3.784;2024-03-02T10:02:34;6.75;;;1.05;;
45408;SDS011;31162;51.076;3.784;2024-03-02T10:04:59;4.38;;;1.08;;
45408;SDS011;31162;51.076;3.784;2024-03-02T10:07:26;5.10;;;1.83;;
45408;SDS011;31162;51.076;3.784;2024-03-02T10:09:51;5.40;;;1.40;;
45408;SDS011;31162;51.076;3.784;2024-03-02T10:12:17;5.90;;;1.30;;
45408;SDS011;31162;51.076;3.784;2024-03-02T10:14:43;6.15;;;1.25;;
45408;SDS011;31162;51.076;3.784;2024-03-02T10:17:11;5.35;;;1.30;;
45408;SDS011;31162;51.076;3.784;2024-03-02T10:19:37;6.93;;;1.88;;
45408;SDS011;31162;51.076;3.784;2024-03-02T10:22:08;6.65;;;1.30;;
45408;SDS011;31162;51.076;3.784;2024-03-02T10:24:35;7.22;;;1.70;;
45408;SDS011;31162;51.076;3.784;2024-03-02T10:27:06;6.50;;;1.35;;
45408;SDS011;31162;51.076;3.784;2024-03-02T10:29:34;4.63;;;1.35;;
45408;SDS011;31162;51.076;3.784;2024-03-02T10:32:03;7.72;;;1.88;;
45408;SDS011;31162;51.076;3.784;2024-03-02T10:34:29;3.40;;;1.65;;
45408;SDS011;31162;51.076;3.784;2024-03-02T10:36:56;8.88;;;1.60;;
45408;SDS011;31162;51.076;3.784;2024-03-02T10:39:22;5.13;;;1.30;;
45408;SDS011;31162;51.076;3.784;2024-03-02T10:41:49;7.50;;;1.60;;
45408;SDS011;31162;51.076;3.784;2024-03-02T10:44:18;3.45;;;1.35;;
45408;SDS011;31162;51.076;3.784;2024-03-02T10:46:44;3.75;;;1.15;;
45408;SDS011;31162;51.076;3.784;2024-03-02T10:49:12;6.97;;;1.40;;
45408;SDS011;31162;51.076;3.784;2024-03-02T10:51:38;5.13;;;1.38;;
45408;SDS011;31162;51.076;3.784;2024-03-02T10:54:04;4.68;;;1.35;;
45408;SDS011;31162;51.076;3.784;2024-03-02T10:56:31;7.78;;;1.27;;
45408;SDS011;31162;51.076;3.784;2024-03-02T10:59:01;5.95;;;1.50;;
45408;SDS011;31162;51.076;3.784;2024-03-02T11:01:32;4.63;;;1.60;;
45408;SDS011;31162;51.076;3.784;2024-03-02T11:03:58;7.80;;;1.63;;
45408;SDS011;31162;51.076;3.784;2024-03-02T11:06:27;5.15;;;1.20;;
45408;SDS011;31162;51.076;3.784;2024-03-02T11:08:54;6.03;;;1.13;;
45408;SDS011;31162;51.076;3.784;2024-03-02T11:11:27;7.10;;;1.50;;
45408;SDS011;31162;51.076;3.784;2024-03-02T11:13:55;4.00;;;1.25;;
45408;SDS011;31162;51.076;3.784;2024-03-02T11:19:05;3.50;;;1.10;;
45408;SDS011;31162;51.076;3.784;2024-03-02T11:21:33;5.38;;;1.38;;
45408;SDS011;31162;51.076;3.784;2024-03-02T11:23:59;3.97;;;1.20;;
45408;SDS011;31162;51.076;3.784;2024-03-02T11:26:27;4.20;;;1.52;;
45408;SDS011;31162;51.076;3.784;2024-03-02T11:28:53;6.53;;;2.13;;
45408;SDS011;31162;51.076;3.784;2024-03-02T11:31:21;6.70;;;1.48;;
45408;SDS011;31162;51.076;3.784;2024-03-02T11:33:46;5.32;;;1.60;;
45408;SDS011;31162;51.076;3.784;2024-03-02T11:36:12;5.32;;;1.23;;
45408;SDS011;31162;51.076;3.784;2024-03-02T11:38:38;5.75;;;1.38;;
45408;SDS011;31162;51.076;3.784;2024-03-02T11:41:07;4.03;;;1.02;;
45408;SDS011;31162;51.076;3.784;2024-03-02T11:43:40;7.63;;;1.38;;
45408;SDS011;31162;51.076;3.784;2024-03-02T11:46:09;6.22;;;1.35;;
45408;SDS011;31162;51.076;3.784;2024-03-02T11:48:36;5.45;;;1.30;;
45408;SDS011;31162;51.076;3.784;2024-03-02T11:51:03;7.22;;;1.48;;
45408;SDS011;31162;51.076;3.784;2024-03-02T11:53:29;6.20;;;1.08;;
45408;SDS011;31162;51.076;3.784;2024-03-02T11:55:57;5.40;;;1.23;;
45408;SDS011;31162;51.076;3.784;2024-03-02T11:58:23;4.85;;;1.00;;
45408;SDS011;31162;51.076;3.784;2024-03-02T12:00:53;7.45;;;1.10;;
45408;SDS011;31162;51.076;3.784;2024-03-02T12:03:20;6.65;;;1.60;;
45408;SDS011;31162;51.076;3.784;2024-03-02T12:05:50;6.28;;;1.27;;
45408;SDS011;31162;51.076;3.784;2024-03-02T12:08:20;7.38;;;1.20;;
45408;SDS011;31162;51.076;3.784;2024-03-02T12:10:59;7.75;;;1.42;;
45408;SDS011;31162;51.076;3.784;2024-03-02T12:13:28;5.72;;;1.10;;
45408;SDS011;31162;51.076;3.784;2024-03-02T12:15:54;5.45;;;1.05;;
45408;SDS011;31162;51.076;3.784;2024-03-02T12:18:23;7.07;;;1.60;;
45408;SDS011;31162;51.076;3.784;2024-03-02T12:20:50;4.43;;;1.45;;
45408;SDS011;31162;51.076;3.784;2024-03-02T12:23:18;3.83;;;1.42;;
45408;SDS011;31162;51.076;3.784;2024-03-02T12:25:44;4.43;;;1.00;;
45408;SDS011;31162;51.076;3.784;2024-03-02T12:28:11;6.38;;;1.30;;
45408;SDS011;31162;51.076;3.784;2024-03-02T12:30:36;5.03;;;1.50;;
45408;SDS011;31162;51.076;3.784;2024-03-02T12:33:02;4.72;;;1.40;;
45408;SDS011;31162;51.076;3.784;2024-03-02T12:35:28;5.25;;;1.60;;
45408;SDS011;31162;51.076;3.784;2024-03-02T12:37:54;6.70;;;1.40;;
45408;SDS011;31162;51.076;3.784;2024-03-02T12:40:20;5.68;;;1.63;;
45408;SDS011;31162;51.076;3.784;2024-03-02T12:42:47;4.75;;;1.35;;
45408;SDS011;31162;51.076;3.784;2024-03-02T12:45:14;5.43;;;1.35;;
45408;SDS011;31162;51.076;3.784;2024-03-02T12:47:41;4.60;;;1.40;;
45408;SDS011;31162;51.076;3.784;2024-03-02T12:50:07;5.43;;;1.30;;
45408;SDS011;31162;51.076;3.784;2024-03-02T12:52:34;6.30;;;1.55;;
45408;SDS011;31162;51.076;3.784;2024-03-02T12:55:01;4.47;;;1.30;;
45408;SDS011;31162;51.076;3.784;2024-03-02T12:57:29;5.25;;;2.00;;
45408;SDS011;31162;51.076;3.784;2024-03-02T13:00:05;4.18;;;2.05;;
45408;SDS011;31162;51.076;3.784;2024-03-02T13:02:35;5.35;;;1.75;;
45408;SDS011;31162;51.076;3.784;2024-03-02T13:05:01;6.10;;;3.75;;
45408;SDS011;31162;51.076;3.784;2024-03-02T13:07:28;11.73;;;3.72;;
45408;SDS011;31162;51.076;3.784;2024-03-02T13:09:54;8.10;;;2.85;;
45408;SDS011;31162;51.076;3.784;2024-03-02T13:12:21;3.72;;;2.00;;
45408;SDS011;31162;51.076;3.784;2024-03-02T13:14:52;6.93;;;2.30;;
45408;SDS011;31162;51.076;3.784;2024-03-02T13:17:18;9.00;;;2.25;;
45408;SDS011;31162;51.076;3.784;2024-03-02T13:19:51;7.32;;;2.70;;
45408;SDS011;31162;51.076;3.784;2024-03-02T13:22:18;7.13;;;2.17;;
45408;SDS011;31162;51.076;3.784;2024-03-02T13:24:44;7.65;;;1.80;;
45408;SDS011;31162;51.076;3.784;2024-03-02T13:27:09;5.30;;;2.13;;
45408;SDS011;31162;51.076;3.784;2024-03-02T13:29:35;6.63;;;2.55;;
45408;SDS011;31162;51.076;3.784;2024-03-02T13:32:01;6.05;;;1.60;;
45408;SDS011;31162;51.076;3.784;2024-03-02T13:34:26;4.97;;;1.77;;
45408;SDS011;31162;51.076;3.784;2024-03-02T13:36:52;5.50;;;1.50;;
45408;SDS011;31162;51.076;3.784;2024-03-02T13:39:17;7.63;;;1.83;;
45408;SDS011;31162;51.076;3.784;2024-03-02T13:41:43;2.72;;;1.30;;
45408;SDS011;31162;51.076;3.784;2024-03-02T13:44:17;7.18;;;2.00;;
45408;SDS011;31162;51.076;3.784;2024-03-02T13:46:43;3.55;;;1.20;;
45408;SDS011;31162;51.076;3.784;2024-03-02T13:49:10;7.20;;;1.73;;
45408;SDS011;31162;51.076;3.784;2024-03-02T13:51:36;3.15;;;1.20;;
45408;SDS011;31162;51.076;3.784;2024-03-02T13:54:02;3.88;;;1.33;;
45408;SDS011;31162;51.076;3.784;2024-03-02T13:56:28;5.75;;;1.92;;
45408;SDS011;31162;51.076;3.784;2024-03-02T13:58:54;6.57;;;1.27;;
45408;SDS011;31162;51.076;3.784;2024-03-02T14:01:20;8.00;;;1.60;;
45408;SDS011;31162;51.076;3.784;2024-03-02T14:03:46;5.38;;;1.60;;
45408;SDS011;31162;51.076;3.784;2024-03-02T14:06:12;5.80;;;1.42;;
45408;SDS011;31162;51.076;3.784;2024-03-02T14:08:38;4.75;;;1.60;;
45408;SDS011;31162;51.076;3.784;2024-03-02T14:11:04;5.65;;;1.75;;
45408;SDS011;31162;51.076;3.784;2024-03-02T14:13:29;5.30;;;1.33;;
45408;SDS011;31162;51.076;3.784;2024-03-02T14:15:55;7.53;;;1.55;;
45408;SDS011;31162;51.076;3.784;2024-03-02T14:18:21;4.13;;;1.40;;
45408;SDS011;31162;51.076;3.784;2024-03-02T14:20:47;6.47;;;1.88;;
45408;SDS011;31162;51.076;3.784;2024-03-02T14:23:18;6.05;;;1.90;;
45408;SDS011;31162;51.076;3.784;2024-03-02T14:25:46;5.05;;;1.80;;
45408;SDS011;31162;51.076;3.784;2024-03-02T14:28:12;5.75;;;2.10;;
45408;SDS011;31162;51.076;3.784;2024-03-02T14:30:38;5.75;;;1.60;;
45408;SDS011;31162;51.076;3.784;2024-03-02T14:33:04;4.35;;;1.67;;
45408;SDS011;31162;51.076;3.784;2024-03-02T14:35:29;5.03;;;2.00;;
45408;SDS011;31162;51.076;3.784;2024-03-02T14:37:55;5.18;;;1.90;;
45408;SDS011;31162;51.076;3.784;2024-03-02T14:40:22;5.07;;;1.98;;
45408;SDS011;31162;51.076;3.784;2024-03-02T14:42:51;5.32;;;1.95;;
45408;SDS011;31162;51.076;3.784;2024-03-02T14:45:17;5.57;;;1.42;;
45408;SDS011;31162;51.076;3.784;2024-03-02T14:47:43;3.60;;;1.50;;
45408;SDS011;31162;51.076;3.784;2024-03-02T14:50:09;7.53;;;2.05;;
45408;SDS011;31162;51.076;3.784;2024-03-02T14:52:35;6.68;;;1.90;;